createdAt,value
2022-08-01T00:04:46.619Z,25.2
2022-08-01T00:09:48.265Z,25.3
2022-08-01T00:14:49.933Z,25.3
2022-08-01T00:19:51.604Z,25.3
2022-08-01T00:24:53.275Z,25.3
2022-08-01T00:30:10.483Z,25.3
2022-08-01T00:35:14.400Z,25.4
2022-08-01T00:40:16.050Z,25.4
2022-08-01T00:45:17.687Z,25.4
2022-08-01T00:55:25.834Z,25.4
2022-08-01T01:00:27.657Z,25.4
2022-08-01T01:05:29.409Z,25.5
2022-08-01T01:10:31.058Z,25.5
2022-08-01T01:15:32.754Z,25.6
2022-08-01T01:20:34.431Z,25.6
2022-08-01T01:25:36.113Z,25.6
2022-08-01T01:30:38.014Z,25.6
2022-08-01T01:35:39.664Z,25.6
2022-08-01T01:40:41.331Z,25.6
2022-08-01T01:45:43.016Z,25.7
2022-08-01T01:50:43.871Z,25.7
2022-08-01T01:55:49.238Z,25.7
2022-08-01T02:00:51.110Z,25.8
2022-08-01T02:05:52.765Z,25.8
2022-08-01T02:10:54.443Z,25.8
2022-08-01T02:15:59.648Z,25.8
2022-08-01T02:21:02.107Z,25.8
2022-08-01T02:26:08.578Z,25.8
2022-08-01T02:31:12.843Z,25.9
2022-08-01T02:36:28.726Z,25.9
2022-08-01T02:41:33.695Z,25.9
2022-08-01T02:46:35.366Z,25.9
2022-08-01T02:51:37.050Z,25.9
2022-08-01T02:56:38.755Z,25.9
2022-08-01T03:01:41.910Z,26
2022-08-01T03:06:44.362Z,26
2022-08-01T03:11:46.879Z,26
2022-08-01T03:16:48.567Z,26.1
2022-08-01T03:21:50.242Z,26.1
2022-08-01T03:26:51.929Z,26.1
2022-08-01T03:31:53.597Z,26.1
2022-08-01T03:36:55.284Z,26.1
2022-08-01T03:41:57.107Z,26.1
2022-08-01T03:46:58.883Z,26.1
2022-08-01T03:52:00.553Z,26.2
2022-08-01T03:57:02.241Z,26.2
2022-08-01T04:02:04.231Z,26.2
2022-08-01T04:07:06.116Z,26.2
2022-08-01T04:12:11.889Z,26.2
2022-08-01T04:17:14.217Z,26.2
2022-08-01T04:22:15.913Z,26.2
2022-08-01T04:27:17.586Z,26.2
2022-08-01T04:32:50.885Z,26.3
2022-08-01T04:37:52.665Z,26.3
2022-08-01T04:42:54.347Z,26.3
2022-08-01T04:47:56.014Z,26.3
2022-08-01T04:52:57.683Z,26.3
2022-08-01T04:57:59.366Z,26.4
2022-08-01T05:03:02.312Z,26.4
2022-08-01T05:08:03.977Z,26.4
2022-08-01T05:13:05.691Z,26.4
2022-08-01T05:18:07.613Z,26.4
2022-08-01T05:23:10.498Z,26.4
2022-08-01T05:28:21.648Z,26.4
2022-08-01T05:33:23.350Z,26.5
2022-08-01T05:38:25.138Z,26.5
2022-08-01T05:43:29.053Z,26.5
2022-08-01T05:48:30.985Z,26.5
2022-08-01T05:53:32.721Z,26.6
2022-08-01T05:58:34.440Z,26.6
2022-08-01T06:03:36.393Z,26.6
2022-08-01T06:08:38.074Z,26.6
2022-08-01T06:13:45.012Z,26.6
2022-08-01T06:18:52.829Z,26.6
2022-08-01T06:23:56.659Z,26.6
2022-08-01T06:28:58.361Z,26.6
2022-08-01T06:34:00.103Z,26.6
2022-08-01T06:39:02.028Z,26.6
2022-08-01T06:44:03.741Z,26.7
2022-08-01T06:49:05.494Z,26.7
2022-08-01T06:54:07.273Z,26.7
2022-08-01T06:59:08.992Z,26.7
2022-08-01T07:04:10.709Z,26.7
2022-08-01T07:09:14.508Z,26.8
2022-08-01T07:14:16.542Z,26.8
2022-08-01T07:19:18.257Z,26.8
2022-08-01T07:24:20.889Z,26.8
2022-08-01T07:29:22.782Z,26.8
2022-08-01T07:34:24.651Z,26.8
2022-08-01T07:39:26.386Z,26.8
2022-08-01T07:44:28.327Z,26.8
2022-08-01T07:49:32.954Z,26.8
2022-08-01T07:54:35.665Z,26.8
2022-08-01T07:59:37.406Z,26.8
2022-08-01T08:04:39.097Z,26.8
2022-08-01T08:09:40.837Z,26.9
2022-08-01T08:14:42.529Z,26.9
2022-08-01T08:19:44.264Z,26.9
2022-08-01T08:24:46.790Z,26.9
2022-08-01T08:29:48.803Z,26.9
2022-08-01T08:34:50.531Z,26.9
2022-08-01T08:39:52.245Z,26.9
2022-08-01T08:44:54.190Z,26.9
2022-08-01T08:49:55.893Z,26.9
2022-08-01T08:54:57.573Z,26.9
2022-08-01T08:59:59.257Z,26.9
2022-08-01T09:05:00.995Z,26.9
2022-08-01T09:10:02.688Z,27
2022-08-01T09:15:04.636Z,26.9
2022-08-01T09:20:06.346Z,27
2022-08-01T09:25:08.015Z,27
2022-08-01T09:30:09.734Z,27
2022-08-01T09:35:13.093Z,27
2022-08-01T09:40:15.034Z,27
2022-08-01T09:45:18.835Z,27
2022-08-01T09:50:25.449Z,27
2022-08-01T09:55:27.139Z,27
2022-08-01T10:00:44.681Z,27.1
2022-08-01T10:05:49.968Z,27.1
2022-08-01T10:10:51.876Z,27.1
2022-08-01T10:15:54.522Z,27.1
2022-08-01T10:21:00.260Z,27.1
2022-08-01T10:26:02.349Z,27.1
2022-08-01T10:31:05.927Z,27.1
2022-08-01T10:36:16.234Z,27.1
2022-08-01T10:41:19.165Z,27.1
2022-08-01T10:46:21.005Z,27.1
2022-08-01T10:51:26.990Z,27.1
2022-08-01T10:56:53.315Z,27.1
2022-08-01T11:01:55.006Z,27.1
2022-08-01T11:06:57.283Z,27.1
2022-08-01T11:11:59.174Z,27.1
2022-08-01T11:17:03.099Z,27.1
2022-08-01T11:22:04.818Z,27.2
2022-08-01T11:27:06.732Z,27.2
2022-08-01T11:32:08.670Z,27.2
2022-08-01T11:37:10.799Z,27.2
2022-08-01T11:42:14.987Z,27.2
2022-08-01T11:47:16.680Z,27.2
2022-08-01T11:52:21.197Z,27.1
2022-08-01T11:57:23.466Z,26.8
2022-08-01T12:02:30.018Z,26.8
2022-08-01T12:07:32.197Z,26.8
2022-08-01T12:12:33.921Z,26.8
2022-08-01T12:17:35.628Z,26.8
2022-08-01T12:22:37.339Z,26.8
2022-08-01T12:27:39.049Z,26.8
2022-08-01T12:32:41.777Z,26.8
2022-08-01T12:37:43.715Z,26.8
2022-08-01T12:42:45.640Z,26.8
2022-08-01T12:47:47.575Z,26.8
2022-08-01T12:52:49.306Z,26.8
2022-08-01T12:57:51.016Z,26.8
2022-08-01T13:02:52.719Z,26.8
2022-08-01T13:07:54.673Z,26.8
2022-08-01T13:12:56.366Z,26.8
2022-08-01T13:17:58.044Z,26.8
2022-08-01T13:22:59.753Z,26.8
2022-08-01T13:28:01.437Z,26.8
2022-08-01T13:33:03.153Z,26.8
2022-08-01T13:38:04.868Z,26.8
2022-08-01T13:43:06.561Z,26.8
2022-08-01T13:48:12.582Z,26.8
2022-08-01T13:53:20.156Z,26.8
2022-08-01T13:58:21.881Z,26.8
2022-08-01T14:03:26.560Z,26.8
2022-08-01T14:08:35.306Z,26.8
2022-08-01T14:13:37.136Z,26.8
2022-08-01T14:18:38.853Z,26.8
2022-08-01T14:23:40.888Z,26.8
2022-08-01T14:28:42.556Z,26.8
2022-08-01T14:33:44.267Z,26.9
2022-08-01T14:38:46.220Z,26.9
2022-08-01T14:43:48.408Z,26.8
2022-08-01T14:48:50.194Z,26.9
2022-08-01T14:53:53.097Z,26.9
2022-08-01T14:58:54.961Z,26.9
2022-08-01T15:03:56.721Z,26.9
2022-08-01T15:08:58.422Z,26.9
2022-08-01T15:14:00.174Z,26.9
2022-08-01T15:19:01.946Z,26.9
2022-08-01T15:24:03.679Z,26.9
2022-08-01T15:29:05.412Z,26.9
2022-08-01T15:34:07.379Z,26.9
2022-08-01T15:39:09.062Z,26.9
2022-08-01T15:44:10.773Z,26.9
2022-08-01T15:49:12.532Z,26.9
2022-08-01T15:54:14.819Z,26.9
2022-08-01T15:59:16.640Z,26.9
2022-08-01T16:04:18.390Z,26.9
2022-08-01T16:09:20.085Z,27
2022-08-01T16:14:26.070Z,27
2022-08-01T16:19:27.762Z,27
2022-08-01T16:24:29.487Z,27
2022-08-01T16:29:31.229Z,27
2022-08-01T16:34:33.178Z,28.3
2022-08-01T16:39:37.251Z,32.1
2022-08-01T16:44:37.480Z,34.7
2022-08-01T16:49:37.850Z,36.9
2022-08-01T16:54:38.310Z,38.6
2022-08-01T16:59:41.120Z,39.9
2022-08-01T17:04:42.150Z,41.1
2022-08-01T17:09:43.597Z,41.9
2022-08-01T17:14:44.257Z,42.7
2022-08-01T17:19:47.214Z,43.2
2022-08-01T17:24:47.727Z,43.2
2022-08-01T17:29:48.259Z,43.2
2022-08-01T17:34:48.762Z,43.2
2022-08-01T17:39:49.238Z,42.9
2022-08-01T17:44:52.055Z,42.5
2022-08-01T17:49:55.434Z,42.4
2022-08-01T17:54:56.059Z,42.4
2022-08-01T17:59:56.540Z,42.4
2022-08-01T18:04:57.067Z,42.3
2022-08-01T18:09:57.555Z,42.3
2022-08-01T18:15:01.392Z,42.2
2022-08-01T18:20:01.869Z,42.2
2022-08-01T18:25:07.491Z,42.2
2022-08-01T18:30:08.994Z,42.2
2022-08-01T18:35:09.531Z,42.1
2022-08-01T18:40:17.400Z,42.1
2022-08-01T18:45:22.949Z,42.1
2022-08-01T18:50:23.382Z,42.1
2022-08-01T18:55:23.899Z,42
2022-08-01T19:00:24.413Z,41.9
2022-08-01T19:05:24.814Z,41.9
2022-08-01T19:10:25.222Z,41.9
2022-08-01T19:15:25.629Z,41.9
2022-08-01T19:20:26.056Z,41.8
2022-08-01T19:25:26.480Z,41.7
2022-08-01T19:30:27.773Z,41.7
2022-08-01T19:35:28.167Z,41.7
2022-08-01T19:40:28.571Z,41.7
2022-08-01T19:45:28.977Z,41.6
2022-08-01T19:50:29.424Z,41.6
2022-08-01T19:55:29.825Z,41.5
2022-08-01T20:00:30.231Z,41.5
2022-08-01T20:05:30.639Z,41.4
2022-08-01T20:10:31.051Z,41.4
2022-08-01T20:15:31.448Z,41.4
2022-08-01T20:20:31.843Z,41.3
2022-08-01T20:25:39.740Z,41.2
2022-08-01T20:30:40.550Z,41.2
2022-08-01T20:35:51.171Z,41.2
2022-08-01T20:40:54.213Z,41.1
2022-08-01T20:45:54.621Z,41.1
2022-08-01T20:50:55.247Z,41.1
2022-08-01T20:55:55.674Z,41
2022-08-01T21:00:56.132Z,40.9
2022-08-01T21:05:59.190Z,40.9
2022-08-01T21:10:59.729Z,40.9
2022-08-01T21:16:23.390Z,40.8
2022-08-01T21:21:25.237Z,40.8
2022-08-01T21:26:25.687Z,40.8
2022-08-01T21:31:26.134Z,40.7
2022-08-01T21:36:39.159Z,40.6
2022-08-01T21:41:55.906Z,40.6
2022-08-01T21:47:01.755Z,40.6
2022-08-01T21:52:02.194Z,40.5
2022-08-01T21:57:02.604Z,40.5
2022-08-01T22:02:03.111Z,40.4
2022-08-01T22:07:03.606Z,40.4
2022-08-01T22:12:04.031Z,40.4
2022-08-01T22:17:04.458Z,40.3
2022-08-01T22:22:29.196Z,40.2
2022-08-01T22:28:02.732Z,40.2
2022-08-01T22:33:15.892Z,40.2
2022-08-01T22:38:17.054Z,40.1
2022-08-01T22:43:17.464Z,40.1
2022-08-01T22:48:17.886Z,40.1
2022-08-01T22:53:18.287Z,40
2022-08-01T22:58:18.748Z,40
2022-08-01T23:03:19.188Z,39.9
2022-08-01T23:08:19.589Z,39.9
2022-08-01T23:13:19.985Z,39.9
2022-08-01T23:18:20.384Z,39.8
2022-08-01T23:23:30.567Z,39.7
2022-08-01T23:28:31.524Z,39.7
2022-08-01T23:33:32.189Z,39.7
2022-08-01T23:38:32.601Z,39.7
2022-08-01T23:43:33.041Z,39.6
2022-08-01T23:48:33.739Z,39.6
2022-08-01T23:53:35.353Z,39.6
2022-08-01T23:58:39.105Z,39.5
